createdAt,value
2018-07-17T00:00:16.461Z,3.80
2018-07-17T00:02:44.896Z,3.80
2018-07-17T00:05:13.403Z,3.63
2018-07-17T00:07:41.552Z,3.90
2018-07-17T00:10:10.061Z,4.10
2018-07-17T00:12:38.782Z,3.87
2018-07-17T00:15:06.881Z,3.90
2018-07-17T00:17:35.904Z,3.73
2018-07-17T00:20:04.415Z,3.83
2018-07-17T00:22:32.962Z,4.63
2018-07-17T00:25:01.385Z,4.10
2018-07-17T00:27:29.897Z,3.90
2018-07-17T00:29:58.320Z,4.20
2018-07-17T00:32:26.814Z,4.67
2018-07-17T00:34:55.228Z,4.17
2018-07-17T00:37:23.641Z,4.20
2018-07-17T00:39:52.193Z,4.20
2018-07-17T00:42:20.738Z,4.17
2018-07-17T00:44:49.222Z,3.87
2018-07-17T00:47:17.685Z,3.77
2018-07-17T00:49:46.159Z,4.27
2018-07-17T00:52:14.624Z,4.57
2018-07-17T00:54:43.141Z,4.50
2018-07-17T00:57:11.613Z,4.17
2018-07-17T00:59:40.105Z,4.70
2018-07-17T01:02:13.868Z,4.30
2018-07-17T01:04:47.605Z,4.23
2018-07-17T01:07:21.214Z,4.13
2018-07-17T01:09:54.979Z,3.70
2018-07-17T01:12:22.589Z,4.07
2018-07-17T01:14:57.220Z,4.23
2018-07-17T01:17:26.484Z,4.73
2018-07-17T01:19:54.916Z,4.83
2018-07-17T01:22:23.369Z,4.90
2018-07-17T01:24:51.796Z,4.20
2018-07-17T01:27:20.212Z,4.10
2018-07-17T01:29:48.648Z,4.17
2018-07-17T01:32:17.108Z,4.60
2018-07-17T01:34:45.539Z,4.27
2018-07-17T01:37:13.996Z,4.50
2018-07-17T01:39:42.409Z,4.50
2018-07-17T01:42:10.869Z,4.60
2018-07-17T01:44:39.283Z,4.13
2018-07-17T01:47:07.724Z,4.47
2018-07-17T01:49:36.166Z,4.83
2018-07-17T01:52:04.624Z,4.60
2018-07-17T01:54:33.076Z,4.63
2018-07-17T01:57:01.502Z,4.27
2018-07-17T01:59:29.607Z,4.70
2018-07-17T02:01:58.148Z,4.33
2018-07-17T02:04:26.568Z,4.53
2018-07-17T02:06:55.023Z,4.17
2018-07-17T02:09:23.436Z,5.23
2018-07-17T02:11:51.869Z,4.50
2018-07-17T02:14:20.452Z,4.83
2018-07-17T02:16:48.880Z,4.70
2018-07-17T02:19:17.343Z,4.80
2018-07-17T02:21:45.816Z,4.70
2018-07-17T02:24:14.276Z,4.37
2018-07-17T02:26:42.680Z,5.37
2018-07-17T02:29:11.117Z,5.37
2018-07-17T02:31:39.549Z,5.47
2018-07-17T02:34:08.089Z,6.90
2018-07-17T02:36:36.536Z,6.03
2018-07-17T02:39:06.553Z,6.23
2018-07-17T02:41:35.013Z,6.13
2018-07-17T02:44:03.561Z,6.30
2018-07-17T02:46:32.093Z,6.87
2018-07-17T02:49:00.532Z,6.10
2018-07-17T02:51:28.964Z,7.37
2018-07-17T02:53:57.725Z,6.30
2018-07-17T02:56:26.206Z,7.07
2018-07-17T02:58:54.621Z,6.50
2018-07-17T03:01:22.780Z,6.53
2018-07-17T03:03:51.205Z,7.00
2018-07-17T03:06:19.649Z,7.07
2018-07-17T03:08:48.113Z,7.47
2018-07-17T03:11:16.549Z,7.37
2018-07-17T03:13:45.041Z,7.37
2018-07-17T03:16:13.473Z,7.50
2018-07-17T03:18:41.874Z,6.93
2018-07-17T03:21:10.364Z,6.87
2018-07-17T03:23:38.784Z,6.33
2018-07-17T03:26:07.248Z,6.90
2018-07-17T03:28:35.668Z,7.27
2018-07-17T03:31:04.159Z,8.50
2018-07-17T03:33:32.588Z,7.27
2018-07-17T03:36:01.056Z,7.70
2018-07-17T03:38:29.486Z,7.07
2018-07-17T03:40:57.904Z,7.47
2018-07-17T03:43:26.349Z,7.83
2018-07-17T03:45:54.441Z,7.97
2018-07-17T03:48:22.873Z,7.00
2018-07-17T03:50:51.300Z,7.30
2018-07-17T03:53:19.732Z,6.87
2018-07-17T03:55:48.158Z,8.00
2018-07-17T03:58:16.597Z,7.30
2018-07-17T04:00:45.021Z,7.47
2018-07-17T04:03:13.475Z,7.57
2018-07-17T04:05:41.959Z,6.97
2018-07-17T04:08:10.404Z,7.10
2018-07-17T04:10:38.852Z,6.70
2018-07-17T04:13:07.295Z,6.57
2018-07-17T04:15:35.740Z,6.30
2018-07-17T04:18:04.263Z,6.00
2018-07-17T04:20:32.837Z,6.63
2018-07-17T04:23:01.284Z,6.17
2018-07-17T04:25:29.729Z,6.03
2018-07-17T04:27:58.173Z,5.93
2018-07-17T04:30:26.589Z,5.83
2018-07-17T04:32:56.166Z,6.07
2018-07-17T04:35:24.616Z,6.07
2018-07-17T04:37:53.489Z,5.60
2018-07-17T04:40:21.924Z,5.77
2018-07-17T04:42:50.421Z,6.07
2018-07-17T04:45:18.893Z,6.00
2018-07-17T04:47:47.340Z,5.63
2018-07-17T04:50:15.896Z,6.20
2018-07-17T04:52:44.428Z,5.80
2018-07-17T04:55:13.004Z,6.27
2018-07-17T04:57:41.601Z,5.23
2018-07-17T05:00:10.087Z,5.33
2018-07-17T05:02:38.552Z,5.83
2018-07-17T05:05:07.605Z,5.83
2018-07-17T05:07:36.136Z,6.80
2018-07-17T05:10:05.712Z,5.80
2018-07-17T05:12:34.249Z,6.57
2018-07-17T05:15:02.692Z,7.23
2018-07-17T05:17:31.129Z,6.53
2018-07-17T05:19:59.556Z,6.20
2018-07-17T05:22:28.057Z,7.00
2018-07-17T05:24:56.481Z,7.50
2018-07-17T05:27:24.940Z,7.87
2018-07-17T05:29:53.504Z,7.63
2018-07-17T05:32:22.407Z,7.53
2018-07-17T05:34:50.973Z,8.00
2018-07-17T05:37:19.565Z,7.80
2018-07-17T05:39:47.989Z,8.27
2018-07-17T05:42:16.432Z,8.63
2018-07-17T05:44:44.884Z,8.23
2018-07-17T05:47:13.477Z,8.90
2018-07-17T05:49:41.972Z,9.07
2018-07-17T05:52:10.405Z,9.23
2018-07-17T05:54:38.864Z,8.87
2018-07-17T05:57:07.444Z,9.03
2018-07-17T05:59:35.909Z,8.93
2018-07-17T06:02:04.416Z,8.70
2018-07-17T06:04:32.856Z,7.83
2018-07-17T06:07:01.289Z,8.83
2018-07-17T06:09:29.793Z,7.73
2018-07-17T06:11:58.217Z,9.43
2018-07-17T06:14:26.671Z,9.23
2018-07-17T06:16:55.161Z,8.90
2018-07-17T06:19:23.612Z,9.17
2018-07-17T06:21:52.085Z,9.40
2018-07-17T06:24:20.618Z,8.97
2018-07-17T06:26:49.084Z,9.33
2018-07-17T06:29:17.510Z,8.50
2018-07-17T06:31:45.960Z,8.30
2018-07-17T06:34:14.691Z,7.87
2018-07-17T06:36:43.141Z,8.03
2018-07-17T06:39:11.599Z,6.97
2018-07-17T06:41:40.025Z,6.33
2018-07-17T06:44:08.569Z,6.80
2018-07-17T06:46:37.008Z,6.13
2018-07-17T06:49:05.280Z,5.50
2018-07-17T06:51:33.721Z,6.03
2018-07-17T06:54:02.257Z,5.77
2018-07-17T06:56:30.689Z,5.83
2018-07-17T06:58:59.124Z,5.40
2018-07-17T07:01:27.556Z,4.70
2018-07-17T07:03:56.009Z,4.87
2018-07-17T07:06:25.697Z,4.33
2018-07-17T07:08:54.137Z,4.00
2018-07-17T07:11:23.313Z,4.50
2018-07-17T07:13:51.705Z,3.93
2018-07-17T07:16:20.248Z,4.03
2018-07-17T07:18:48.728Z,3.90
2018-07-17T07:21:17.180Z,3.80
2018-07-17T07:23:45.617Z,3.50
2018-07-17T07:26:14.061Z,3.80
2018-07-17T07:28:42.497Z,3.80
2018-07-17T07:31:11.044Z,4.00
2018-07-17T07:33:39.498Z,4.23
2018-07-17T07:36:07.961Z,4.33
2018-07-17T07:38:36.400Z,4.30
2018-07-17T07:41:04.851Z,3.97
2018-07-17T07:43:33.312Z,3.60
2018-07-17T07:46:01.765Z,4.13
2018-07-17T07:48:30.189Z,3.70
2018-07-17T07:50:58.653Z,3.70
2018-07-17T07:53:27.105Z,4.00
2018-07-17T07:55:55.624Z,3.43
2018-07-17T07:58:24.074Z,3.87
2018-07-17T08:00:52.516Z,3.20
2018-07-17T08:03:20.989Z,2.90
2018-07-17T08:05:49.503Z,3.27
2018-07-17T08:08:18.126Z,3.20
2018-07-17T08:10:46.732Z,3.40
2018-07-17T08:13:15.197Z,3.50
2018-07-17T08:15:43.646Z,3.97
2018-07-17T08:18:12.101Z,2.37
2018-07-17T08:20:40.566Z,2.03
2018-07-17T08:23:09.008Z,2.20
2018-07-17T08:25:37.802Z,1.83
2018-07-17T08:28:06.271Z,2.07
2018-07-17T08:30:34.726Z,2.10
2018-07-17T08:33:03.208Z,2.17
2018-07-17T08:35:31.771Z,2.30
2018-07-17T08:38:00.235Z,2.53
2018-07-17T08:40:28.372Z,1.90
2018-07-17T08:42:56.857Z,2.30
2018-07-17T08:45:25.360Z,2.00
2018-07-17T08:47:53.914Z,2.10
2018-07-17T08:50:22.400Z,2.10
2018-07-17T08:52:50.820Z,2.60
2018-07-17T08:55:19.335Z,2.33
2018-07-17T08:57:47.784Z,2.00
2018-07-17T09:00:16.293Z,2.00
2018-07-17T09:02:44.761Z,2.20
2018-07-17T09:05:13.345Z,2.57
2018-07-17T09:07:41.821Z,2.70
2018-07-17T09:10:10.272Z,2.47
2018-07-17T09:12:38.761Z,2.47
2018-07-17T09:15:07.356Z,2.40
2018-07-17T09:17:35.843Z,3.20
2018-07-17T09:20:04.404Z,2.40
2018-07-17T09:22:32.834Z,2.57
2018-07-17T09:25:01.296Z,2.73
2018-07-17T09:27:29.824Z,2.63
2018-07-17T09:29:58.257Z,2.40
2018-07-17T09:32:26.689Z,1.87
2018-07-17T09:34:55.193Z,2.80
2018-07-17T09:37:23.629Z,2.80
2018-07-17T09:39:52.073Z,2.70
2018-07-17T09:42:20.568Z,2.17
2018-07-17T09:44:49.041Z,2.50
2018-07-17T09:47:17.472Z,2.10
2018-07-17T09:49:46.024Z,2.10
2018-07-17T09:52:14.435Z,2.10
2018-07-17T09:54:43.033Z,2.10
2018-07-17T09:57:11.513Z,1.90
2018-07-17T09:59:39.956Z,2.30
2018-07-17T10:02:14.019Z,1.93
2018-07-17T10:04:43.140Z,2.20
2018-07-17T10:07:11.552Z,2.20
2018-07-17T10:09:40.123Z,2.10
2018-07-17T10:12:08.621Z,2.20
2018-07-17T10:14:37.155Z,2.07
2018-07-17T10:17:05.799Z,2.20
2018-07-17T10:19:34.248Z,2.13
2018-07-17T10:22:02.708Z,2.17
2018-07-17T10:24:31.141Z,2.40
2018-07-17T10:26:59.633Z,2.40
2018-07-17T10:29:28.110Z,2.43
2018-07-17T10:31:56.699Z,2.37
2018-07-17T10:34:25.142Z,2.00
2018-07-17T10:36:53.572Z,2.40
2018-07-17T10:39:21.992Z,2.23
2018-07-17T10:41:50.461Z,2.40
2018-07-17T10:44:18.607Z,2.30
2018-07-17T10:46:50.395Z,2.60
2018-07-17T10:49:18.876Z,2.83
2018-07-17T10:51:47.391Z,2.83
2018-07-17T10:54:15.881Z,2.43
2018-07-17T10:56:44.329Z,2.80
2018-07-17T10:59:12.780Z,2.40
2018-07-17T11:01:41.208Z,2.00
2018-07-17T11:04:09.738Z,2.30
2018-07-17T11:06:38.189Z,2.00
2018-07-17T11:09:06.854Z,1.80
2018-07-17T11:11:35.308Z,1.90
2018-07-17T11:14:03.864Z,1.80
2018-07-17T11:16:33.013Z,1.60
2018-07-17T11:19:01.501Z,1.93
2018-07-17T11:21:30.193Z,2.23
2018-07-17T11:23:58.648Z,1.90
2018-07-17T11:26:27.232Z,2.10
2018-07-17T11:28:55.709Z,1.90
2018-07-17T11:31:24.232Z,1.97
2018-07-17T11:33:52.709Z,2.00
2018-07-17T11:36:21.161Z,2.10
2018-07-17T11:38:49.902Z,1.90
2018-07-17T11:41:18.380Z,2.00
2018-07-17T11:43:46.839Z,2.40
2018-07-17T11:46:15.306Z,2.00
2018-07-17T11:48:43.776Z,2.17
2018-07-17T11:51:12.250Z,2.33
2018-07-17T11:53:40.704Z,2.23
2018-07-17T11:56:09.217Z,2.20
2018-07-17T11:58:37.657Z,2.10
2018-07-17T12:01:06.264Z,2.20
2018-07-17T12:03:34.775Z,2.50
2018-07-17T12:06:03.277Z,2.33
2018-07-17T12:08:31.732Z,2.00
2018-07-17T12:11:00.162Z,2.70
2018-07-17T12:13:28.617Z,2.43
2018-07-17T12:15:57.169Z,2.10
2018-07-17T12:18:26.049Z,1.87
2018-07-17T12:20:54.521Z,2.03
2018-07-17T12:23:23.362Z,1.90
2018-07-17T12:25:51.840Z,2.07
2018-07-17T12:28:20.304Z,1.90
2018-07-17T12:30:48.780Z,2.20
2018-07-17T12:33:17.256Z,2.07
2018-07-17T12:35:45.732Z,2.07
2018-07-17T12:38:14.300Z,2.20
2018-07-17T12:40:42.744Z,1.90
2018-07-17T12:43:11.326Z,2.30
2018-07-17T12:45:39.801Z,2.00
2018-07-17T12:48:08.358Z,2.40
2018-07-17T12:50:36.832Z,2.67
2018-07-17T12:53:05.305Z,2.27
2018-07-17T12:55:33.725Z,2.47
2018-07-17T12:58:02.155Z,2.20
2018-07-17T13:00:30.627Z,2.17
2018-07-17T13:02:59.150Z,2.20
2018-07-17T13:05:27.789Z,2.37
2018-07-17T13:07:56.292Z,2.17
2018-07-17T13:10:24.804Z,2.00
2018-07-17T13:12:53.233Z,2.00
2018-07-17T13:15:21.692Z,2.20
2018-07-17T13:17:50.235Z,2.50
2018-07-17T13:20:18.701Z,2.13
2018-07-17T13:22:47.136Z,2.47
2018-07-17T13:25:15.683Z,2.50
2018-07-17T13:27:44.141Z,2.30
2018-07-17T13:30:12.645Z,2.53
2018-07-17T13:32:41.073Z,2.20
2018-07-17T13:35:09.604Z,2.50
2018-07-17T13:37:38.069Z,2.43
2018-07-17T13:40:06.589Z,2.17
2018-07-17T13:42:35.039Z,2.50
2018-07-17T13:45:03.582Z,2.30
2018-07-17T13:47:32.005Z,2.00
2018-07-17T13:50:00.525Z,2.10
2018-07-17T13:52:29.029Z,2.30
2018-07-17T13:54:57.612Z,1.80
2018-07-17T13:57:26.146Z,2.00
2018-07-17T13:59:54.603Z,2.20
2018-07-17T14:02:23.156Z,2.20
2018-07-17T14:04:51.557Z,1.90
2018-07-17T14:07:20.021Z,2.27
2018-07-17T14:09:48.477Z,2.10
2018-07-17T14:12:17.340Z,2.10
2018-07-17T14:14:45.388Z,2.40
2018-07-17T14:17:13.905Z,2.67
2018-07-17T14:19:42.384Z,2.47
2018-07-17T14:22:10.838Z,2.90
2018-07-17T14:24:39.288Z,2.97
2018-07-17T14:27:07.731Z,2.80
2018-07-17T14:29:36.161Z,2.70
2018-07-17T14:32:04.640Z,2.67
2018-07-17T14:34:33.117Z,2.70
2018-07-17T14:37:01.597Z,2.67
2018-07-17T14:39:30.124Z,2.40
2018-07-17T14:41:58.552Z,2.60
2018-07-17T14:44:26.986Z,2.67
2018-07-17T14:46:55.449Z,2.90
2018-07-17T14:49:23.932Z,3.03
2018-07-17T14:51:52.356Z,2.40
2018-07-17T14:54:20.794Z,2.70
2018-07-17T14:56:49.294Z,3.03
2018-07-17T14:59:17.721Z,2.50
2018-07-17T15:01:46.172Z,3.20
2018-07-17T15:04:14.609Z,3.00
2018-07-17T15:06:43.134Z,2.70
2018-07-17T15:09:11.581Z,2.70
2018-07-17T15:11:39.708Z,2.53
2018-07-17T15:14:08.253Z,2.70
2018-07-17T15:16:36.744Z,2.57
2018-07-17T15:19:05.373Z,2.60
2018-07-17T15:21:33.828Z,2.40
2018-07-17T15:24:02.313Z,2.40
2018-07-17T15:26:30.856Z,2.67
2018-07-17T15:28:59.309Z,2.70
2018-07-17T15:31:27.864Z,2.60
2018-07-17T15:33:56.315Z,2.60
2018-07-17T15:36:24.776Z,2.33
2018-07-17T15:38:53.201Z,2.60
2018-07-17T15:41:21.673Z,2.40
2018-07-17T15:43:51.060Z,2.20
2018-07-17T15:46:19.508Z,1.90
2018-07-17T15:48:48.000Z,2.33
2018-07-17T15:51:16.432Z,2.40
2018-07-17T15:53:44.869Z,2.10
2018-07-17T15:56:13.361Z,2.20
2018-07-17T15:58:41.804Z,1.97
2018-07-17T16:01:10.468Z,2.60
2018-07-17T16:03:38.950Z,2.60
2018-07-17T16:06:07.452Z,2.07
2018-07-17T16:08:35.605Z,2.10
2018-07-17T16:11:03.732Z,2.13
2018-07-17T16:13:32.278Z,2.20
2018-07-17T16:16:00.675Z,2.20
2018-07-17T16:18:29.197Z,1.97
2018-07-17T16:20:57.669Z,2.17
2018-07-17T16:23:28.539Z,1.80
2018-07-17T16:25:57.044Z,1.77
2018-07-17T16:28:25.488Z,2.17
2018-07-17T16:30:53.969Z,1.60
2018-07-17T16:33:22.476Z,1.40
2018-07-17T16:35:50.954Z,1.50
2018-07-17T16:38:19.401Z,1.80
2018-07-17T16:40:47.849Z,1.23
2018-07-17T16:43:16.381Z,1.80
2018-07-17T16:45:45.285Z,1.30
2018-07-17T16:48:13.733Z,1.33
2018-07-17T16:50:42.206Z,1.13
2018-07-17T16:53:10.700Z,1.33
2018-07-17T16:55:39.127Z,1.20
2018-07-17T16:58:07.592Z,1.03
2018-07-17T17:00:35.696Z,1.07
2018-07-17T17:03:04.137Z,1.30
2018-07-17T17:05:32.676Z,1.57
2018-07-17T17:08:01.144Z,1.50
2018-07-17T17:10:29.574Z,1.50
2018-07-17T17:12:58.035Z,1.50
2018-07-17T17:15:26.188Z,1.77
2018-07-17T17:17:54.629Z,1.83
2018-07-17T17:20:23.084Z,1.83
2018-07-17T17:22:51.220Z,1.40
2018-07-17T17:25:19.665Z,1.80
2018-07-17T17:27:48.120Z,2.10
2018-07-17T17:30:16.570Z,1.77
2018-07-17T17:32:45.115Z,1.43
2018-07-17T17:35:13.555Z,1.60
2018-07-17T17:37:41.989Z,1.53
2018-07-17T17:40:10.441Z,1.60
2018-07-17T17:42:38.875Z,1.80
2018-07-17T17:45:07.445Z,1.50
2018-07-17T17:47:35.893Z,1.77
2018-07-17T17:50:04.385Z,2.00
2018-07-17T17:52:32.928Z,1.40
2018-07-17T17:55:01.389Z,1.40
2018-07-17T17:57:29.511Z,1.87
2018-07-17T17:59:57.939Z,1.77
2018-07-17T18:02:26.142Z,1.70
2018-07-17T18:04:54.753Z,1.60
2018-07-17T18:07:23.213Z,1.50
2018-07-17T18:09:51.673Z,1.73
2018-07-17T18:12:20.109Z,2.10
2018-07-17T18:14:48.596Z,2.10
2018-07-17T18:17:17.025Z,1.70
2018-07-17T18:19:45.532Z,1.80
2018-07-17T18:22:13.924Z,2.07
2018-07-17T18:24:42.459Z,1.90
2018-07-17T18:27:10.920Z,1.90
2018-07-17T18:29:39.400Z,1.73
2018-07-17T18:32:08.261Z,1.50
2018-07-17T18:34:36.848Z,1.67
2018-07-17T18:37:05.344Z,1.40
2018-07-17T18:39:33.504Z,1.57
2018-07-17T18:42:02.013Z,2.20
2018-07-17T18:44:30.436Z,1.87
2018-07-17T18:46:58.891Z,2.10
2018-07-17T18:49:27.385Z,2.13
2018-07-17T18:51:55.877Z,2.30
2018-07-17T18:54:24.444Z,2.47
2018-07-17T18:56:52.939Z,2.27
2018-07-17T18:59:21.736Z,2.77
2018-07-17T19:01:50.185Z,2.27
2018-07-17T19:04:18.637Z,2.13
2018-07-17T19:06:47.165Z,1.97
2018-07-17T19:09:15.672Z,2.30
2018-07-17T19:11:44.141Z,2.10
2018-07-17T19:14:12.568Z,1.90
2018-07-17T19:16:41.043Z,2.23
2018-07-17T19:19:09.504Z,2.10
2018-07-17T19:21:37.952Z,2.23
2018-07-17T19:24:06.446Z,1.80
2018-07-17T19:26:34.892Z,1.80
2018-07-17T19:29:03.415Z,1.80
2018-07-17T19:31:31.532Z,1.77
2018-07-17T19:33:59.969Z,1.73
2018-07-17T19:36:28.452Z,1.70
2018-07-17T19:38:56.981Z,1.90
2018-07-17T19:41:25.456Z,2.13
2018-07-17T19:43:53.917Z,1.60
2018-07-17T19:46:22.409Z,1.70
2018-07-17T19:48:50.859Z,1.50
2018-07-17T19:51:19.320Z,2.20
2018-07-17T19:53:47.768Z,1.77
2018-07-17T19:56:16.199Z,1.70
2018-07-17T19:58:44.657Z,1.47
2018-07-17T20:01:13.197Z,1.60
2018-07-17T20:03:41.738Z,1.60
2018-07-17T20:06:10.180Z,1.60
2018-07-17T20:08:38.726Z,1.73
2018-07-17T20:11:07.169Z,1.93
2018-07-17T20:13:35.693Z,1.97
2018-07-17T20:16:04.288Z,1.90
2018-07-17T20:18:32.761Z,1.53
2018-07-17T20:21:01.699Z,2.40
2018-07-17T20:23:30.224Z,1.93
2018-07-17T20:25:59.120Z,1.30
2018-07-17T20:28:27.548Z,1.67
2018-07-17T20:30:55.997Z,1.80
2018-07-17T20:33:24.499Z,1.90
2018-07-17T20:35:52.991Z,1.47
2018-07-17T20:38:21.445Z,1.80
2018-07-17T20:40:49.964Z,1.60
2018-07-17T20:43:18.442Z,1.90
2018-07-17T20:45:47.055Z,1.40
2018-07-17T20:48:15.486Z,1.93
2018-07-17T20:50:43.928Z,1.97
2018-07-17T20:53:12.488Z,1.90
2018-07-17T20:55:40.952Z,1.63
2018-07-17T20:58:09.428Z,1.40
2018-07-17T21:00:37.897Z,1.63
2018-07-17T21:03:06.642Z,1.80
2018-07-17T21:05:35.102Z,1.80
2018-07-17T21:08:03.584Z,1.70
2018-07-17T21:10:32.050Z,1.60
2018-07-17T21:13:00.533Z,1.70
2018-07-17T21:15:28.999Z,1.77
2018-07-17T21:17:57.465Z,1.43
2018-07-17T21:20:25.958Z,2.10
2018-07-17T21:22:54.472Z,1.50
2018-07-17T21:25:23.000Z,1.60
2018-07-17T21:27:51.412Z,1.50
2018-07-17T21:30:19.845Z,1.80
2018-07-17T21:32:48.277Z,1.80
2018-07-17T21:35:16.764Z,1.80
2018-07-17T21:37:45.221Z,1.70
2018-07-17T21:40:13.656Z,1.80
2018-07-17T21:42:42.293Z,1.60
2018-07-17T21:45:11.196Z,1.93
2018-07-17T21:47:39.673Z,1.80
2018-07-17T21:50:08.161Z,1.90
2018-07-17T21:52:36.626Z,1.60
2018-07-17T21:55:05.112Z,2.03
2018-07-17T21:57:33.618Z,1.60
2018-07-17T22:00:02.113Z,2.27
2018-07-17T22:02:30.540Z,1.90
2018-07-17T22:04:59.008Z,1.70
2018-07-17T22:07:27.447Z,2.07
2018-07-17T22:09:55.892Z,1.97
2018-07-17T22:12:24.321Z,1.90
2018-07-17T22:14:52.766Z,2.17
2018-07-17T22:17:21.204Z,1.67
2018-07-17T22:19:49.673Z,2.03
2018-07-17T22:22:18.111Z,1.77
2018-07-17T22:24:46.552Z,2.07
2018-07-17T22:27:15.013Z,1.90
2018-07-17T22:29:43.434Z,2.03
2018-07-17T22:32:11.872Z,1.80
2018-07-17T22:34:40.313Z,1.77
2018-07-17T22:37:08.437Z,2.17
2018-07-17T22:39:36.912Z,2.40
2018-07-17T22:42:05.633Z,2.07
2018-07-17T22:44:34.067Z,2.20
2018-07-17T22:47:02.500Z,1.90
2018-07-17T22:49:30.925Z,2.10
2018-07-17T22:51:59.393Z,2.30
2018-07-17T22:54:27.792Z,2.10
2018-07-17T22:56:56.257Z,2.23
2018-07-17T22:59:24.685Z,1.90
2018-07-17T23:01:53.124Z,1.67
2018-07-17T23:04:21.728Z,2.20
2018-07-17T23:06:50.159Z,1.83
2018-07-17T23:09:18.582Z,1.80
2018-07-17T23:11:47.033Z,1.83
2018-07-17T23:14:15.460Z,1.73
2018-07-17T23:16:43.901Z,2.13
2018-07-17T23:19:13.022Z,2.13
2018-07-17T23:21:41.436Z,2.03
2018-07-17T23:24:09.921Z,2.23
2018-07-17T23:26:38.337Z,2.23
2018-07-17T23:29:07.011Z,2.27
2018-07-17T23:31:36.415Z,2.10
2018-07-17T23:34:04.972Z,2.10
2018-07-17T23:36:33.417Z,1.93
2018-07-17T23:39:01.827Z,1.97
2018-07-17T23:41:30.317Z,2.37
2018-07-17T23:43:58.749Z,2.37
2018-07-17T23:46:27.200Z,2.43
2018-07-17T23:48:55.602Z,2.57
2018-07-17T23:51:24.315Z,2.10
2018-07-17T23:53:53.053Z,2.03
2018-07-17T23:56:21.461Z,2.30
2018-07-17T23:58:49.898Z,2.20
